sensor_id;sensor_type;location;lat;lon;timestamp;temperature;humidity
592;DHT22;283;53.608;10.046;2022-12-18T00:02:00;-4.30;94.30
592;DHT22;283;53.608;10.046;2022-12-18T00:04:28;-4.30;94.30
592;DHT22;283;53.608;10.046;2022-12-18T00:06:55;-4.30;94.30
592;DHT22;283;53.608;10.046;2022-12-18T00:09:24;-4.30;94.30
592;DHT22;283;53.608;10.046;2022-12-18T00:12:05;-4.30;94.30
592;DHT22;283;53.608;10.046;2022-12-18T00:14:44;-4.30;94.10
592;DHT22;283;53.608;10.046;2022-12-18T00:17:11;-4.40;94.10
592;DHT22;283;53.608;10.046;2022-12-18T00:19:39;-4.40;94.10
592;DHT22;283;53.608;10.046;2022-12-18T00:22:07;-4.40;94.00
592;DHT22;283;53.608;10.046;2022-12-18T00:24:35;-4.40;94.10
592;DHT22;283;53.608;10.046;2022-12-18T00:27:03;-4.40;94.10
592;DHT22;283;53.608;10.046;2022-12-18T00:29:31;-4.50;94.10
592;DHT22;283;53.608;10.046;2022-12-18T00:31:58;-4.50;94.10
592;DHT22;283;53.608;10.046;2022-12-18T00:34:26;-4.40;94.10
592;DHT22;283;53.608;10.046;2022-12-18T00:36:54;-4.40;94.10
592;DHT22;283;53.608;10.046;2022-12-18T00:39:21;-4.50;94.10
592;DHT22;283;53.608;10.046;2022-12-18T00:41:50;-4.40;93.90
592;DHT22;283;53.608;10.046;2022-12-18T00:44:35;-4.50;94.00
592;DHT22;283;53.608;10.046;2022-12-18T00:47:03;-4.50;94.00
592;DHT22;283;53.608;10.046;2022-12-18T00:49:31;-4.50;93.90
592;DHT22;283;53.608;10.046;2022-12-18T00:51:59;-4.50;93.80
592;DHT22;283;53.608;10.046;2022-12-18T00:54:26;-4.50;93.90
592;DHT22;283;53.608;10.046;2022-12-18T00:56:55;-4.60;93.80
592;DHT22;283;53.608;10.046;2022-12-18T00:59:23;-4.60;93.90
592;DHT22;283;53.608;10.046;2022-12-18T01:01:51;-4.70;94.00
592;DHT22;283;53.608;10.046;2022-12-18T01:04:18;-4.70;94.10
592;DHT22;283;53.608;10.046;2022-12-18T01:06:46;-4.80;94.10
592;DHT22;283;53.608;10.046;2022-12-18T01:09:14;-4.80;94.50
592;DHT22;283;53.608;10.046;2022-12-18T01:11:41;-4.80;94.20
592;DHT22;283;53.608;10.046;2022-12-18T01:14:10;-4.70;94.00
592;DHT22;283;53.608;10.046;2022-12-18T01:16:38;-4.70;93.90
592;DHT22;283;53.608;10.046;2022-12-18T01:19:06;-4.70;93.80
592;DHT22;283;53.608;10.046;2022-12-18T01:21:33;-4.70;93.60
592;DHT22;283;53.608;10.046;2022-12-18T01:24:01;-4.70;93.60
592;DHT22;283;53.608;10.046;2022-12-18T01:26:29;-4.70;93.50
592;DHT22;283;53.608;10.046;2022-12-18T01:28:56;-4.70;93.50
592;DHT22;283;53.608;10.046;2022-12-18T01:31:26;-4.70;93.40
592;DHT22;283;53.608;10.046;2022-12-18T01:33:54;-4.60;93.60
592;DHT22;283;53.608;10.046;2022-12-18T01:36:23;-4.80;93.50
592;DHT22;283;53.608;10.046;2022-12-18T01:38:51;-4.80;93.60
592;DHT22;283;53.608;10.046;2022-12-18T01:41:21;-4.90;93.50
592;DHT22;283;53.608;10.046;2022-12-18T01:43:50;-4.90;93.60
592;DHT22;283;53.608;10.046;2022-12-18T01:46:18;-4.80;93.70
592;DHT22;283;53.608;10.046;2022-12-18T01:48:48;-4.80;93.80
592;DHT22;283;53.608;10.046;2022-12-18T01:51:17;-4.80;93.70
592;DHT22;283;53.608;10.046;2022-12-18T01:53:45;-4.90;93.70
592;DHT22;283;53.608;10.046;2022-12-18T01:56:14;-4.80;93.60
592;DHT22;283;53.608;10.046;2022-12-18T01:58:46;-4.80;93.60
592;DHT22;283;53.608;10.046;2022-12-18T02:01:16;-4.90;93.60
592;DHT22;283;53.608;10.046;2022-12-18T02:03:44;-4.80;93.70
592;DHT22;283;53.608;10.046;2022-12-18T02:06:15;-4.80;93.50
592;DHT22;283;53.608;10.046;2022-12-18T02:08:46;-4.80;93.60
592;DHT22;283;53.608;10.046;2022-12-18T02:11:17;-4.80;93.40
592;DHT22;283;53.608;10.046;2022-12-18T02:19:55;-4.90;93.20
592;DHT22;283;53.608;10.046;2022-12-18T02:22:33;-4.90;93.20
592;DHT22;283;53.608;10.046;2022-12-18T02:25:07;-4.90;93.30
592;DHT22;283;53.608;10.046;2022-12-18T02:27:42;-4.80;93.40
592;DHT22;283;53.608;10.046;2022-12-18T02:30:12;-4.90;93.00
592;DHT22;283;53.608;10.046;2022-12-18T02:32:42;-4.90;93.00
592;DHT22;283;53.608;10.046;2022-12-18T02:35:13;-4.90;93.30
592;DHT22;283;53.608;10.046;2022-12-18T02:37:42;-5.00;92.70
592;DHT22;283;53.608;10.046;2022-12-18T02:40:11;-4.70;92.90
592;DHT22;283;53.608;10.046;2022-12-18T02:42:49;-4.90;92.90
592;DHT22;283;53.608;10.046;2022-12-18T02:45:18;-4.90;92.90
592;DHT22;283;53.608;10.046;2022-12-18T02:47:46;-4.70;92.40
592;DHT22;283;53.608;10.046;2022-12-18T02:50:16;-4.90;92.90
592;DHT22;283;53.608;10.046;2022-12-18T02:52:49;-5.00;93.00
592;DHT22;283;53.608;10.046;2022-12-18T02:55:22;-5.10;93.10
592;DHT22;283;53.608;10.046;2022-12-18T02:57:54;-5.10;93.10
592;DHT22;283;53.608;10.046;2022-12-18T03:00:24;-5.10;93.10
592;DHT22;283;53.608;10.046;2022-12-18T03:02:57;-4.80;92.80
592;DHT22;283;53.608;10.046;2022-12-18T03:05:30;-5.00;92.70
592;DHT22;283;53.608;10.046;2022-12-18T03:07:59;-5.00;92.70
592;DHT22;283;53.608;10.046;2022-12-18T03:10:35;-4.90;92.40
592;DHT22;283;53.608;10.046;2022-12-18T03:13:09;-5.00;92.70
592;DHT22;283;53.608;10.046;2022-12-18T03:15:50;-5.20;92.90
592;DHT22;283;53.608;10.046;2022-12-18T03:22:20;-5.00;93.00
592;DHT22;283;53.608;10.046;2022-12-18T03:24:52;-5.10;92.40
592;DHT22;283;53.608;10.046;2022-12-18T03:27:32;-4.90;92.60
592;DHT22;283;53.608;10.046;2022-12-18T03:30:33;-5.20;92.40
592;DHT22;283;53.608;10.046;2022-12-18T03:33:07;-5.20;93.10
592;DHT22;283;53.608;10.046;2022-12-18T03:35:37;-5.10;92.90
592;DHT22;283;53.608;10.046;2022-12-18T03:38:05;-5.20;92.80
592;DHT22;283;53.608;10.046;2022-12-18T03:40:35;-5.30;92.90
592;DHT22;283;53.608;10.046;2022-12-18T03:43:07;-5.20;92.90
592;DHT22;283;53.608;10.046;2022-12-18T03:45:37;-5.10;92.70
592;DHT22;283;53.608;10.046;2022-12-18T03:48:07;-5.10;92.60
592;DHT22;283;53.608;10.046;2022-12-18T03:50:37;-5.10;92.60
592;DHT22;283;53.608;10.046;2022-12-18T03:53:09;-5.10;92.50
592;DHT22;283;53.608;10.046;2022-12-18T03:55:40;-5.10;92.50
592;DHT22;283;53.608;10.046;2022-12-18T03:58:08;-5.20;92.40
592;DHT22;283;53.608;10.046;2022-12-18T04:00:39;-5.20;92.40
592;DHT22;283;53.608;10.046;2022-12-18T04:03:07;-5.20;92.60
592;DHT22;283;53.608;10.046;2022-12-18T04:05:36;-5.30;92.70
592;DHT22;283;53.608;10.046;2022-12-18T04:08:04;-5.30;92.70
592;DHT22;283;53.608;10.046;2022-12-18T04:10:32;-5.40;92.70
592;DHT22;283;53.608;10.046;2022-12-18T04:12:59;-5.30;92.80
592;DHT22;283;53.608;10.046;2022-12-18T04:15:27;-5.20;92.80
592;DHT22;283;53.608;10.046;2022-12-18T04:17:56;-5.40;92.80
592;DHT22;283;53.608;10.046;2022-12-18T04:20:23;-5.40;92.60
592;DHT22;283;53.608;10.046;2022-12-18T04:22:51;-5.40;92.50
592;DHT22;283;53.608;10.046;2022-12-18T04:25:19;-5.50;93.20
592;DHT22;283;53.608;10.046;2022-12-18T04:27:46;-5.50;92.90
592;DHT22;283;53.608;10.046;2022-12-18T04:30:14;-5.40;92.80
592;DHT22;283;53.608;10.046;2022-12-18T04:32:41;-5.50;92.80
592;DHT22;283;53.608;10.046;2022-12-18T04:35:17;-5.60;92.80
592;DHT22;283;53.608;10.046;2022-12-18T04:37:45;-5.50;92.60
592;DHT22;283;53.608;10.046;2022-12-18T04:40:12;-5.50;92.70
592;DHT22;283;53.608;10.046;2022-12-18T04:42:40;-5.50;92.70
592;DHT22;283;53.608;10.046;2022-12-18T04:45:08;-5.50;92.40
592;DHT22;283;53.608;10.046;2022-12-18T04:47:36;-5.40;92.50
592;DHT22;283;53.608;10.046;2022-12-18T04:50:04;-5.50;92.40
592;DHT22;283;53.608;10.046;2022-12-18T04:52:33;-5.50;92.60
592;DHT22;283;53.608;10.046;2022-12-18T04:55:00;-5.40;92.50
592;DHT22;283;53.608;10.046;2022-12-18T04:57:28;-5.60;92.50
592;DHT22;283;53.608;10.046;2022-12-18T04:59:56;-5.60;92.60
592;DHT22;283;53.608;10.046;2022-12-18T05:02:23;-5.60;92.40
592;DHT22;283;53.608;10.046;2022-12-18T05:04:52;-5.50;92.50
592;DHT22;283;53.608;10.046;2022-12-18T05:07:19;-5.40;92.50
592;DHT22;283;53.608;10.046;2022-12-18T05:09:48;-5.60;92.60
592;DHT22;283;53.608;10.046;2022-12-18T05:12:16;-5.70;92.50
592;DHT22;283;53.608;10.046;2022-12-18T05:14:43;-5.70;92.70
592;DHT22;283;53.608;10.046;2022-12-18T05:17:11;-5.60;92.80
592;DHT22;283;53.608;10.046;2022-12-18T05:19:39;-5.60;92.60
592;DHT22;283;53.608;10.046;2022-12-18T05:22:06;-5.60;92.60
592;DHT22;283;53.608;10.046;2022-12-18T05:24:34;-5.60;92.60
592;DHT22;283;53.608;10.046;2022-12-18T05:27:03;-5.60;92.50
592;DHT22;283;53.608;10.046;2022-12-18T05:29:30;-5.60;92.40
592;DHT22;283;53.608;10.046;2022-12-18T05:31:58;-5.50;92.40
592;DHT22;283;53.608;10.046;2022-12-18T05:34:25;-5.60;92.30
592;DHT22;283;53.608;10.046;2022-12-18T05:36:53;-5.60;92.40
592;DHT22;283;53.608;10.046;2022-12-18T05:39:21;-5.60;92.40
592;DHT22;283;53.608;10.046;2022-12-18T05:41:48;-5.70;92.40
592;DHT22;283;53.608;10.046;2022-12-18T05:44:17;-5.70;92.50
592;DHT22;283;53.608;10.046;2022-12-18T05:46:45;-5.70;92.50
592;DHT22;283;53.608;10.046;2022-12-18T05:49:12;-5.70;92.40
592;DHT22;283;53.608;10.046;2022-12-18T05:51:40;-5.70;92.40
592;DHT22;283;53.608;10.046;2022-12-18T05:54:08;-5.80;92.40
592;DHT22;283;53.608;10.046;2022-12-18T05:56:36;-5.70;92.20
592;DHT22;283;53.608;10.046;2022-12-18T05:59:04;-5.80;92.30
592;DHT22;283;53.608;10.046;2022-12-18T06:01:32;-5.80;92.40
592;DHT22;283;53.608;10.046;2022-12-18T06:04:00;-5.80;92.40
592;DHT22;283;53.608;10.046;2022-12-18T06:06:28;-5.70;92.20
592;DHT22;283;53.608;10.046;2022-12-18T06:08:56;-5.80;92.20
592;DHT22;283;53.608;10.046;2022-12-18T06:11:24;-5.80;92.40
592;DHT22;283;53.608;10.046;2022-12-18T06:13:52;-5.80;92.30
592;DHT22;283;53.608;10.046;2022-12-18T06:16:24;-5.80;92.30
592;DHT22;283;53.608;10.046;2022-12-18T06:18:53;-5.70;92.30
592;DHT22;283;53.608;10.046;2022-12-18T06:21:22;-5.80;92.30
592;DHT22;283;53.608;10.046;2022-12-18T06:23:50;-5.70;92.20
592;DHT22;283;53.608;10.046;2022-12-18T06:26:18;-5.70;92.20
592;DHT22;283;53.608;10.046;2022-12-18T06:28:53;-5.80;92.30
592;DHT22;283;53.608;10.046;2022-12-18T06:31:20;-5.80;92.20
592;DHT22;283;53.608;10.046;2022-12-18T06:33:48;-5.70;92.20
592;DHT22;283;53.608;10.046;2022-12-18T06:36:17;-5.70;92.10
592;DHT22;283;53.608;10.046;2022-12-18T06:38:45;-5.80;92.20
592;DHT22;283;53.608;10.046;2022-12-18T06:41:14;-5.80;92.20
592;DHT22;283;53.608;10.046;2022-12-18T06:43:42;-5.80;92.30
592;DHT22;283;53.608;10.046;2022-12-18T06:46:10;-5.80;92.30
592;DHT22;283;53.608;10.046;2022-12-18T06:48:38;-5.90;92.40
592;DHT22;283;53.608;10.046;2022-12-18T06:51:06;-5.90;92.40
592;DHT22;283;53.608;10.046;2022-12-18T06:53:35;-5.90;92.30
592;DHT22;283;53.608;10.046;2022-12-18T06:56:04;-5.90;92.40
592;DHT22;283;53.608;10.046;2022-12-18T06:58:36;-5.90;92.40
592;DHT22;283;53.608;10.046;2022-12-18T07:01:04;-6.10;92.80
592;DHT22;283;53.608;10.046;2022-12-18T07:03:33;-6.20;93.20
592;DHT22;283;53.608;10.046;2022-12-18T07:06:01;-6.20;93.50
592;DHT22;283;53.608;10.046;2022-12-18T07:08:28;-6.10;93.30
592;DHT22;283;53.608;10.046;2022-12-18T07:10:57;-6.30;93.50
592;DHT22;283;53.608;10.046;2022-12-18T07:13:25;-6.20;93.50
592;DHT22;283;53.608;10.046;2022-12-18T07:15:53;-6.10;93.30
592;DHT22;283;53.608;10.046;2022-12-18T07:18:21;-6.00;93.30
592;DHT22;283;53.608;10.046;2022-12-18T07:20:48;-6.10;93.30
592;DHT22;283;53.608;10.046;2022-12-18T07:23:16;-6.20;93.50
592;DHT22;283;53.608;10.046;2022-12-18T07:25:44;-6.00;93.50
592;DHT22;283;53.608;10.046;2022-12-18T07:28:13;-6.20;93.30
592;DHT22;283;53.608;10.046;2022-12-18T07:30:43;-6.10;93.20
592;DHT22;283;53.608;10.046;2022-12-18T07:33:10;-6.00;92.90
592;DHT22;283;53.608;10.046;2022-12-18T07:35:38;-6.00;92.80
592;DHT22;283;53.608;10.046;2022-12-18T07:38:05;-6.00;92.90
592;DHT22;283;53.608;10.046;2022-12-18T07:40:33;-6.10;93.10
592;DHT22;283;53.608;10.046;2022-12-18T07:43:04;-6.30;93.70
592;DHT22;283;53.608;10.046;2022-12-18T07:45:33;-6.20;94.00
592;DHT22;283;53.608;10.046;2022-12-18T07:48:00;-6.10;93.40
592;DHT22;283;53.608;10.046;2022-12-18T07:50:28;-6.00;93.10
592;DHT22;283;53.608;10.046;2022-12-18T07:52:56;-5.90;92.90
592;DHT22;283;53.608;10.046;2022-12-18T07:55:24;-6.00;92.70
592;DHT22;283;53.608;10.046;2022-12-18T07:57:52;-5.90;92.70
592;DHT22;283;53.608;10.046;2022-12-18T08:00:27;-5.80;92.70
592;DHT22;283;53.608;10.046;2022-12-18T08:02:58;-6.00;92.90
592;DHT22;283;53.608;10.046;2022-12-18T08:05:26;-6.00;92.90
592;DHT22;283;53.608;10.046;2022-12-18T08:07:54;-5.90;92.90
592;DHT22;283;53.608;10.046;2022-12-18T08:10:22;-5.90;93.00
592;DHT22;283;53.608;10.046;2022-12-18T08:12:50;-5.90;93.10
592;DHT22;283;53.608;10.046;2022-12-18T08:15:18;-5.90;93.30
592;DHT22;283;53.608;10.046;2022-12-18T08:17:45;-5.80;93.00
592;DHT22;283;53.608;10.046;2022-12-18T08:20:14;-5.80;93.10
592;DHT22;283;53.608;10.046;2022-12-18T08:22:43;-5.80;92.80
592;DHT22;283;53.608;10.046;2022-12-18T08:25:11;-5.70;92.70
592;DHT22;283;53.608;10.046;2022-12-18T08:27:39;-5.70;92.90
592;DHT22;283;53.608;10.046;2022-12-18T08:30:07;-5.60;92.90
592;DHT22;283;53.608;10.046;2022-12-18T08:32:34;-5.70;92.90
592;DHT22;283;53.608;10.046;2022-12-18T08:35:03;-5.60;93.20
592;DHT22;283;53.608;10.046;2022-12-18T08:37:32;-5.60;92.80
592;DHT22;283;53.608;10.046;2022-12-18T08:40:00;-5.50;92.80
592;DHT22;283;53.608;10.046;2022-12-18T08:42:27;-5.40;92.50
592;DHT22;283;53.608;10.046;2022-12-18T08:45:12;-5.50;92.60
592;DHT22;283;53.608;10.046;2022-12-18T08:47:40;-5.40;92.40
592;DHT22;283;53.608;10.046;2022-12-18T08:50:09;-5.40;92.60
592;DHT22;283;53.608;10.046;2022-12-18T08:52:39;-5.30;92.60
592;DHT22;283;53.608;10.046;2022-12-18T08:55:07;-5.40;92.50
592;DHT22;283;53.608;10.046;2022-12-18T08:57:35;-5.20;92.50
592;DHT22;283;53.608;10.046;2022-12-18T09:00:03;-5.20;92.40
592;DHT22;283;53.608;10.046;2022-12-18T09:02:30;-5.20;92.40
592;DHT22;283;53.608;10.046;2022-12-18T09:04:58;-5.20;92.30
592;DHT22;283;53.608;10.046;2022-12-18T09:07:26;-5.20;92.40
592;DHT22;283;53.608;10.046;2022-12-18T09:09:55;-5.00;92.30
592;DHT22;283;53.608;10.046;2022-12-18T09:12:22;-4.90;92.20
592;DHT22;283;53.608;10.046;2022-12-18T09:14:50;-5.00;92.20
592;DHT22;283;53.608;10.046;2022-12-18T09:17:18;-4.90;92.00
592;DHT22;283;53.608;10.046;2022-12-18T09:19:45;-4.90;91.80
592;DHT22;283;53.608;10.046;2022-12-18T09:22:13;-4.80;91.90
592;DHT22;283;53.608;10.046;2022-12-18T09:24:40;-4.90;91.80
592;DHT22;283;53.608;10.046;2022-12-18T09:27:09;-4.80;91.40
592;DHT22;283;53.608;10.046;2022-12-18T09:29:37;-4.80;91.60
592;DHT22;283;53.608;10.046;2022-12-18T09:32:04;-4.70;91.50
592;DHT22;283;53.608;10.046;2022-12-18T09:34:32;-4.70;91.20
592;DHT22;283;53.608;10.046;2022-12-18T09:37:00;-4.60;91.10
592;DHT22;283;53.608;10.046;2022-12-18T09:39:27;-4.50;91.00
592;DHT22;283;53.608;10.046;2022-12-18T09:41:58;-4.50;90.90
592;DHT22;283;53.608;10.046;2022-12-18T09:44:27;-4.30;90.80
592;DHT22;283;53.608;10.046;2022-12-18T09:47:03;-4.40;90.60
592;DHT22;283;53.608;10.046;2022-12-18T09:49:37;-4.20;90.60
592;DHT22;283;53.608;10.046;2022-12-18T09:52:08;-4.20;90.70
592;DHT22;283;53.608;10.046;2022-12-18T09:54:38;-4.10;90.60
592;DHT22;283;53.608;10.046;2022-12-18T09:57:09;-4.10;90.70
592;DHT22;283;53.608;10.046;2022-12-18T09:59:39;-4.00;90.50
592;DHT22;283;53.608;10.046;2022-12-18T10:02:15;-4.00;90.30
592;DHT22;283;53.608;10.046;2022-12-18T10:04:44;-3.90;90.30
592;DHT22;283;53.608;10.046;2022-12-18T10:07:15;-3.80;90.00
592;DHT22;283;53.608;10.046;2022-12-18T10:09:46;-3.80;90.00
592;DHT22;283;53.608;10.046;2022-12-18T10:12:19;-3.70;89.90
592;DHT22;283;53.608;10.046;2022-12-18T10:14:50;-3.70;90.10
592;DHT22;283;53.608;10.046;2022-12-18T10:17:21;-3.70;90.10
592;DHT22;283;53.608;10.046;2022-12-18T10:19:54;-3.60;89.00
592;DHT22;283;53.608;10.046;2022-12-18T10:22:26;-3.50;89.20
592;DHT22;283;53.608;10.046;2022-12-18T10:24:59;-3.40;88.90
592;DHT22;283;53.608;10.046;2022-12-18T10:27:29;-3.30;89.60
592;DHT22;283;53.608;10.046;2022-12-18T10:30:00;-3.30;88.70
592;DHT22;283;53.608;10.046;2022-12-18T10:32:29;-3.20;88.60
592;DHT22;283;53.608;10.046;2022-12-18T10:34:57;-3.30;88.70
592;DHT22;283;53.608;10.046;2022-12-18T10:37:27;-3.30;88.20
592;DHT22;283;53.608;10.046;2022-12-18T10:40:06;-3.00;87.90
592;DHT22;283;53.608;10.046;2022-12-18T10:42:34;-3.10;88.30
592;DHT22;283;53.608;10.046;2022-12-18T10:45:03;-3.10;87.90
592;DHT22;283;53.608;10.046;2022-12-18T10:47:31;-3.10;88.30
592;DHT22;283;53.608;10.046;2022-12-18T10:50:00;-3.00;88.70
592;DHT22;283;53.608;10.046;2022-12-18T10:52:28;-3.00;88.20
592;DHT22;283;53.608;10.046;2022-12-18T10:54:57;-2.90;88.30
592;DHT22;283;53.608;10.046;2022-12-18T10:57:31;-2.80;88.20
592;DHT22;283;53.608;10.046;2022-12-18T10:59:59;-2.70;88.00
592;DHT22;283;53.608;10.046;2022-12-18T11:02:33;-2.50;87.90
592;DHT22;283;53.608;10.046;2022-12-18T11:05:02;-2.30;87.70
592;DHT22;283;53.608;10.046;2022-12-18T11:07:46;-2.50;86.60
592;DHT22;283;53.608;10.046;2022-12-18T11:10:15;-2.40;86.50
592;DHT22;283;53.608;10.046;2022-12-18T11:12:43;-2.50;86.20
592;DHT22;283;53.608;10.046;2022-12-18T11:15:14;-2.40;86.00
592;DHT22;283;53.608;10.046;2022-12-18T11:17:44;-2.40;86.10
592;DHT22;283;53.608;10.046;2022-12-18T11:20:19;-2.30;86.10
592;DHT22;283;53.608;10.046;2022-12-18T11:22:54;-2.20;85.50
592;DHT22;283;53.608;10.046;2022-12-18T11:25:23;-2.20;85.50
592;DHT22;283;53.608;10.046;2022-12-18T11:28:02;-2.20;85.60
592;DHT22;283;53.608;10.046;2022-12-18T11:30:31;-2.20;85.60
592;DHT22;283;53.608;10.046;2022-12-18T11:33:01;-1.90;85.70
592;DHT22;283;53.608;10.046;2022-12-18T11:35:34;-2.10;85.00
592;DHT22;283;53.608;10.046;2022-12-18T11:38:02;-2.10;85.20
592;DHT22;283;53.608;10.046;2022-12-18T11:40:33;-2.10;85.10
592;DHT22;283;53.608;10.046;2022-12-18T11:43:08;-2.00;85.20
592;DHT22;283;53.608;10.046;2022-12-18T11:45:39;-2.00;84.90
592;DHT22;283;53.608;10.046;2022-12-18T11:48:12;-1.80;84.50
592;DHT22;283;53.608;10.046;2022-12-18T11:50:44;-1.80;84.50
592;DHT22;283;53.608;10.046;2022-12-18T11:53:13;-1.60;83.90
592;DHT22;283;53.608;10.046;2022-12-18T11:55:41;-1.60;83.40
592;DHT22;283;53.608;10.046;2022-12-18T11:58:12;-1.70;83.60
592;DHT22;283;53.608;10.046;2022-12-18T12:00:45;-1.80;83.80
592;DHT22;283;53.608;10.046;2022-12-18T12:03:21;-1.70;83.90
592;DHT22;283;53.608;10.046;2022-12-18T12:05:58;-1.80;84.10
592;DHT22;283;53.608;10.046;2022-12-18T12:08:31;-1.90;84.20
592;DHT22;283;53.608;10.046;2022-12-18T12:11:03;-1.80;83.80
592;DHT22;283;53.608;10.046;2022-12-18T12:13:38;-1.70;83.70
592;DHT22;283;53.608;10.046;2022-12-18T12:16:15;-1.70;83.70
592;DHT22;283;53.608;10.046;2022-12-18T12:18:52;-1.60;83.80
592;DHT22;283;53.608;10.046;2022-12-18T12:21:25;-1.60;84.00
592;DHT22;283;53.608;10.046;2022-12-18T12:23:57;-1.60;83.70
592;DHT22;283;53.608;10.046;2022-12-18T12:26:29;-1.60;84.00
592;DHT22;283;53.608;10.046;2022-12-18T12:29:02;-1.60;84.00
592;DHT22;283;53.608;10.046;2022-12-18T12:31:48;-1.60;84.70
592;DHT22;283;53.608;10.046;2022-12-18T12:34:21;-1.60;83.70
592;DHT22;283;53.608;10.046;2022-12-18T12:36:54;-1.50;82.70
592;DHT22;283;53.608;10.046;2022-12-18T12:39:25;-1.40;82.90
592;DHT22;283;53.608;10.046;2022-12-18T12:41:54;-1.40;82.40
592;DHT22;283;53.608;10.046;2022-12-18T12:44:41;-1.30;82.10
592;DHT22;283;53.608;10.046;2022-12-18T12:47:13;-1.30;82.10
592;DHT22;283;53.608;10.046;2022-12-18T12:49:46;-1.30;81.80
592;DHT22;283;53.608;10.046;2022-12-18T12:52:17;-1.10;81.80
592;DHT22;283;53.608;10.046;2022-12-18T12:54:48;-0.80;81.90
592;DHT22;283;53.608;10.046;2022-12-18T12:57:18;-1.00;81.50
592;DHT22;283;53.608;10.046;2022-12-18T12:59:49;-1.00;81.40
592;DHT22;283;53.608;10.046;2022-12-18T13:02:18;-1.00;81.10
592;DHT22;283;53.608;10.046;2022-12-18T13:04:52;-1.00;80.80
592;DHT22;283;53.608;10.046;2022-12-18T13:07:23;-0.90;80.80
592;DHT22;283;53.608;10.046;2022-12-18T13:12:54;-0.90;80.40
592;DHT22;283;53.608;10.046;2022-12-18T13:15:25;-0.90;81.10
592;DHT22;283;53.608;10.046;2022-12-18T13:18:03;-1.00;80.70
592;DHT22;283;53.608;10.046;2022-12-18T13:20:34;-0.90;81.00
592;DHT22;283;53.608;10.046;2022-12-18T13:23:17;-0.80;80.50
592;DHT22;283;53.608;10.046;2022-12-18T13:25:47;-0.80;80.50
592;DHT22;283;53.608;10.046;2022-12-18T13:28:15;-0.80;80.30
592;DHT22;283;53.608;10.046;2022-12-18T13:30:49;-0.90;80.80
592;DHT22;283;53.608;10.046;2022-12-18T13:33:37;-0.90;80.70
592;DHT22;283;53.608;10.046;2022-12-18T13:36:31;-1.00;80.80
592;DHT22;283;53.608;10.046;2022-12-18T13:39:09;-1.10;80.90
592;DHT22;283;53.608;10.046;2022-12-18T13:41:37;-1.00;80.90
592;DHT22;283;53.608;10.046;2022-12-18T13:44:12;-1.10;80.90
592;DHT22;283;53.608;10.046;2022-12-18T13:46:44;-1.30;80.70
592;DHT22;283;53.608;10.046;2022-12-18T13:49:19;-1.40;81.00
592;DHT22;283;53.608;10.046;2022-12-18T13:51:49;-1.40;81.40
592;DHT22;283;53.608;10.046;2022-12-18T13:54:18;-1.60;81.10
592;DHT22;283;53.608;10.046;2022-12-18T13:56:48;-1.60;81.30
592;DHT22;283;53.608;10.046;2022-12-18T13:59:17;-1.70;81.70
592;DHT22;283;53.608;10.046;2022-12-18T14:01:51;-1.60;81.70
592;DHT22;283;53.608;10.046;2022-12-18T14:04:24;-1.70;81.70
592;DHT22;283;53.608;10.046;2022-12-18T14:06:54;-1.70;82.00
592;DHT22;283;53.608;10.046;2022-12-18T14:09:24;-1.70;82.20
592;DHT22;283;53.608;10.046;2022-12-18T14:11:53;-1.80;82.30
592;DHT22;283;53.608;10.046;2022-12-18T14:14:43;-1.70;82.60
592;DHT22;283;53.608;10.046;2022-12-18T14:17:11;-1.70;82.50
592;DHT22;283;53.608;10.046;2022-12-18T14:19:41;-1.80;82.90
592;DHT22;283;53.608;10.046;2022-12-18T14:22:14;-1.70;82.70
592;DHT22;283;53.608;10.046;2022-12-18T14:24:42;-1.90;82.80
592;DHT22;283;53.608;10.046;2022-12-18T14:27:20;-1.90;83.20
592;DHT22;283;53.608;10.046;2022-12-18T14:29:48;-1.90;83.40
592;DHT22;283;53.608;10.046;2022-12-18T14:32:16;-1.90;83.50
592;DHT22;283;53.608;10.046;2022-12-18T14:34:45;-2.00;83.70
592;DHT22;283;53.608;10.046;2022-12-18T14:37:15;-2.00;83.60
592;DHT22;283;53.608;10.046;2022-12-18T14:39:53;-2.10;84.00
592;DHT22;283;53.608;10.046;2022-12-18T14:42:21;-2.20;84.40
592;DHT22;283;53.608;10.046;2022-12-18T14:44:48;-2.20;84.40
592;DHT22;283;53.608;10.046;2022-12-18T14:47:36;-2.10;84.10
592;DHT22;283;53.608;10.046;2022-12-18T14:50:04;-2.20;84.50
592;DHT22;283;53.608;10.046;2022-12-18T14:52:40;-2.30;85.00
592;DHT22;283;53.608;10.046;2022-12-18T14:55:13;-2.20;85.40
592;DHT22;283;53.608;10.046;2022-12-18T14:57:41;-2.30;85.10
592;DHT22;283;53.608;10.046;2022-12-18T15:00:14;-2.30;85.30
592;DHT22;283;53.608;10.046;2022-12-18T15:02:42;-2.30;85.50
592;DHT22;283;53.608;10.046;2022-12-18T15:05:16;-2.30;85.50
592;DHT22;283;53.608;10.046;2022-12-18T15:07:46;-2.40;86.10
592;DHT22;283;53.608;10.046;2022-12-18T15:10:14;-2.50;86.10
592;DHT22;283;53.608;10.046;2022-12-18T15:12:43;-2.40;86.30
592;DHT22;283;53.608;10.046;2022-12-18T15:17:57;-2.50;86.50
592;DHT22;283;53.608;10.046;2022-12-18T15:20:25;-2.50;86.70
592;DHT22;283;53.608;10.046;2022-12-18T15:22:54;-2.50;86.80
592;DHT22;283;53.608;10.046;2022-12-18T15:25:24;-2.60;87.10
592;DHT22;283;53.608;10.046;2022-12-18T15:27:53;-2.60;87.40
592;DHT22;283;53.608;10.046;2022-12-18T15:30:22;-2.60;87.50
592;DHT22;283;53.608;10.046;2022-12-18T15:32:50;-2.80;87.80
592;DHT22;283;53.608;10.046;2022-12-18T15:35:19;-2.70;87.90
592;DHT22;283;53.608;10.046;2022-12-18T15:37:46;-2.60;87.80
592;DHT22;283;53.608;10.046;2022-12-18T15:40:16;-2.70;88.10
592;DHT22;283;53.608;10.046;2022-12-18T15:42:45;-2.70;88.30
592;DHT22;283;53.608;10.046;2022-12-18T15:45:30;-2.70;88.40
592;DHT22;283;53.608;10.046;2022-12-18T15:47:58;-2.60;88.80
592;DHT22;283;53.608;10.046;2022-12-18T15:50:26;-2.60;88.30
592;DHT22;283;53.608;10.046;2022-12-18T15:52:54;-2.50;88.20
592;DHT22;283;53.608;10.046;2022-12-18T15:55:23;-2.50;88.40
592;DHT22;283;53.608;10.046;2022-12-18T15:58:09;-2.60;88.70
592;DHT22;283;53.608;10.046;2022-12-18T16:00:38;-2.50;88.80
592;DHT22;283;53.608;10.046;2022-12-18T16:03:08;-2.50;88.50
592;DHT22;283;53.608;10.046;2022-12-18T16:05:36;-2.40;88.50
592;DHT22;283;53.608;10.046;2022-12-18T16:08:03;-2.40;88.20
592;DHT22;283;53.608;10.046;2022-12-18T16:10:32;-2.40;88.60
592;DHT22;283;53.608;10.046;2022-12-18T16:13:00;-2.50;88.60
592;DHT22;283;53.608;10.046;2022-12-18T16:15:27;-2.40;88.40
592;DHT22;283;53.608;10.046;2022-12-18T16:17:55;-2.50;88.50
592;DHT22;283;53.608;10.046;2022-12-18T16:20:22;-2.50;88.70
592;DHT22;283;53.608;10.046;2022-12-18T16:22:50;-2.40;88.90
592;DHT22;283;53.608;10.046;2022-12-18T16:25:22;-2.40;88.80
592;DHT22;283;53.608;10.046;2022-12-18T16:27:53;-2.40;88.70
592;DHT22;283;53.608;10.046;2022-12-18T16:30:21;-2.50;88.90
592;DHT22;283;53.608;10.046;2022-12-18T16:32:49;-2.50;89.20
592;DHT22;283;53.608;10.046;2022-12-18T16:35:17;-2.50;89.20
592;DHT22;283;53.608;10.046;2022-12-18T16:37:44;-2.30;89.10
592;DHT22;283;53.608;10.046;2022-12-18T16:40:12;-2.50;89.40
592;DHT22;283;53.608;10.046;2022-12-18T16:42:41;-2.60;89.50
592;DHT22;283;53.608;10.046;2022-12-18T16:45:11;-2.60;89.90
592;DHT22;283;53.608;10.046;2022-12-18T16:47:39;-2.60;89.80
592;DHT22;283;53.608;10.046;2022-12-18T16:50:07;-2.70;89.60
592;DHT22;283;53.608;10.046;2022-12-18T16:52:35;-2.60;89.70